sensor_id;sensor_type;location;lat;lon;timestamp;P1;durP1;ratioP1;P2;durP2;ratioP2
14663;SDS011;7419;52.184;5.944;2022-08-11T00:02:41;0.68;;;0.67;;
14663;SDS011;7419;52.184;5.944;2022-08-11T00:02:45;1.37;;;0.71;;
14663;SDS011;7419;52.184;5.944;2022-08-11T00:02:49;0.65;;;0.52;;
14663;SDS011;7419;52.184;5.944;2022-08-11T00:03:49;0.63;;;0.62;;
14663;SDS011;7419;52.184;5.944;2022-08-11T00:04:48;0.83;;;0.59;;
14663;SDS011;7419;52.184;5.944;2022-08-11T00:05:50;0.40;;;0.39;;
14663;SDS011;7419;52.184;5.944;2022-08-11T00:06:48;1.25;;;0.64;;
14663;SDS011;7419;52.184;5.944;2022-08-11T00:07:49;1.08;;;0.52;;
14663;SDS011;7419;52.184;5.944;2022-08-11T00:08:48;0.60;;;0.60;;
14663;SDS011;7419;52.184;5.944;2022-08-11T00:09:48;0.49;;;0.48;;
14663;SDS011;7419;52.184;5.944;2022-08-11T00:10:50;0.98;;;0.61;;
14663;SDS011;7419;52.184;5.944;2022-08-11T00:11:49;1.89;;;0.57;;
14663;SDS011;7419;52.184;5.944;2022-08-11T00:12:50;1.48;;;0.55;;
14663;SDS011;7419;52.184;5.944;2022-08-11T00:13:48;0.84;;;0.53;;
14663;SDS011;7419;52.184;5.944;2022-08-11T00:14:54;0.58;;;0.43;;
14663;SDS011;7419;52.184;5.944;2022-08-11T00:15:48;1.64;;;0.50;;
14663;SDS011;7419;52.184;5.944;2022-08-11T00:16:53;1.45;;;0.58;;
14663;SDS011;7419;52.184;5.944;2022-08-11T00:17:49;0.86;;;0.68;;
14663;SDS011;7419;52.184;5.944;2022-08-11T00:18:49;0.84;;;0.47;;
14663;SDS011;7419;52.184;5.944;2022-08-11T00:19:48;1.11;;;0.53;;
14663;SDS011;7419;52.184;5.944;2022-08-11T00:20:49;1.41;;;0.52;;
14663;SDS011;7419;52.184;5.944;2022-08-11T00:21:49;0.71;;;0.71;;
14663;SDS011;7419;52.184;5.944;2022-08-11T00:22:49;2.18;;;0.45;;
14663;SDS011;7419;52.184;5.944;2022-08-11T00:23:51;0.69;;;0.59;;
14663;SDS011;7419;52.184;5.944;2022-08-11T00:24:49;1.49;;;0.53;;
14663;SDS011;7419;52.184;5.944;2022-08-11T00:25:49;0.64;;;0.51;;
14663;SDS011;7419;52.184;5.944;2022-08-11T00:26:49;0.92;;;0.85;;
14663;SDS011;7419;52.184;5.944;2022-08-11T00:27:49;0.65;;;0.40;;
14663;SDS011;7419;52.184;5.944;2022-08-11T00:28:49;0.62;;;0.55;;
14663;SDS011;7419;52.184;5.944;2022-08-11T00:29:51;2.34;;;0.54;;
14663;SDS011;7419;52.184;5.944;2022-08-11T00:30:49;0.71;;;0.44;;
14663;SDS011;7419;52.184;5.944;2022-08-11T00:31:50;0.88;;;0.46;;
14663;SDS011;7419;52.184;5.944;2022-08-11T00:32:52;1.53;;;0.63;;
14663;SDS011;7419;52.184;5.944;2022-08-11T00:33:49;0.42;;;0.42;;
14663;SDS011;7419;52.184;5.944;2022-08-11T00:34:49;0.96;;;0.38;;
14663;SDS011;7419;52.184;5.944;2022-08-11T00:35:49;2.59;;;0.39;;
14663;SDS011;7419;52.184;5.944;2022-08-11T00:36:50;1.48;;;0.44;;
14663;SDS011;7419;52.184;5.944;2022-08-11T00:37:51;0.79;;;0.56;;
14663;SDS011;7419;52.184;5.944;2022-08-11T00:38:50;2.50;;;0.63;;
14663;SDS011;7419;52.184;5.944;2022-08-11T00:39:50;0.40;;;0.39;;
14663;SDS011;7419;52.184;5.944;2022-08-11T00:40:52;0.79;;;0.52;;
14663;SDS011;7419;52.184;5.944;2022-08-11T00:41:57;0.84;;;0.46;;
14663;SDS011;7419;52.184;5.944;2022-08-11T00:42:54;1.16;;;0.39;;
14663;SDS011;7419;52.184;5.944;2022-08-11T00:43:54;1.33;;;0.35;;
14663;SDS011;7419;52.184;5.944;2022-08-11T00:44:54;0.41;;;0.40;;
14663;SDS011;7419;52.184;5.944;2022-08-11T00:45:59;0.75;;;0.48;;
14663;SDS011;7419;52.184;5.944;2022-08-11T00:46:54;0.55;;;0.40;;
14663;SDS011;7419;52.184;5.944;2022-08-11T00:47:54;0.45;;;0.44;;
14663;SDS011;7419;52.184;5.944;2022-08-11T00:48:55;1.41;;;0.43;;
14663;SDS011;7419;52.184;5.944;2022-08-11T00:49:53;3.13;;;0.61;;
14663;SDS011;7419;52.184;5.944;2022-08-11T00:51:54;1.42;;;0.84;;
14663;SDS011;7419;52.184;5.944;2022-08-11T00:52:58;0.63;;;0.40;;
14663;SDS011;7419;52.184;5.944;2022-08-11T00:53:53;0.53;;;0.49;;
14663;SDS011;7419;52.184;5.944;2022-08-11T00:55:15;0.72;;;0.52;;
14663;SDS011;7419;52.184;5.944;2022-08-11T00:55:58;0.45;;;0.44;;
14663;SDS011;7419;52.184;5.944;2022-08-11T00:57:03;0.45;;;0.45;;
14663;SDS011;7419;52.184;5.944;2022-08-11T00:58:08;0.50;;;0.50;;
14663;SDS011;7419;52.184;5.944;2022-08-11T01:00:00;0.48;;;0.48;;
14663;SDS011;7419;52.184;5.944;2022-08-11T01:00:57;0.92;;;0.55;;
14663;SDS011;7419;52.184;5.944;2022-08-11T01:01:56;1.31;;;0.53;;
14663;SDS011;7419;52.184;5.944;2022-08-11T01:02:57;1.11;;;0.41;;
14663;SDS011;7419;52.184;5.944;2022-08-11T01:03:56;0.68;;;0.65;;
14663;SDS011;7419;52.184;5.944;2022-08-11T01:04:58;0.33;;;0.31;;
14663;SDS011;7419;52.184;5.944;2022-08-11T01:05:56;0.91;;;0.55;;
14663;SDS011;7419;52.184;5.944;2022-08-11T01:07:00;3.75;;;0.54;;
14663;SDS011;7419;52.184;5.944;2022-08-11T01:08:01;0.71;;;0.45;;
14663;SDS011;7419;52.184;5.944;2022-08-11T01:09:08;2.43;;;0.46;;
14663;SDS011;7419;52.184;5.944;2022-08-11T01:09:57;1.54;;;0.52;;
14663;SDS011;7419;52.184;5.944;2022-08-11T01:10:55;0.31;;;0.31;;
14663;SDS011;7419;52.184;5.944;2022-08-11T01:11:55;0.68;;;0.59;;
14663;SDS011;7419;52.184;5.944;2022-08-11T01:12:55;1.72;;;0.62;;
14663;SDS011;7419;52.184;5.944;2022-08-11T01:14:01;1.16;;;0.67;;
14663;SDS011;7419;52.184;5.944;2022-08-11T01:15:04;2.34;;;0.45;;
14663;SDS011;7419;52.184;5.944;2022-08-11T01:17:55;0.36;;;0.36;;
14663;SDS011;7419;52.184;5.944;2022-08-11T01:18:59;0.77;;;0.53;;
14663;SDS011;7419;52.184;5.944;2022-08-11T01:19:58;1.26;;;0.39;;
14663;SDS011;7419;52.184;5.944;2022-08-11T01:21:13;0.48;;;0.42;;
14663;SDS011;7419;52.184;5.944;2022-08-11T01:24:03;1.58;;;0.36;;
14663;SDS011;7419;52.184;5.944;2022-08-11T01:25:02;0.66;;;0.53;;
14663;SDS011;7419;52.184;5.944;2022-08-11T01:25:58;0.65;;;0.50;;
14663;SDS011;7419;52.184;5.944;2022-08-11T01:28:06;0.99;;;0.60;;
14663;SDS011;7419;52.184;5.944;2022-08-11T01:28:57;0.60;;;0.60;;
14663;SDS011;7419;52.184;5.944;2022-08-11T01:30:02;0.58;;;0.58;;
14663;SDS011;7419;52.184;5.944;2022-08-11T01:31:00;1.22;;;0.52;;
14663;SDS011;7419;52.184;5.944;2022-08-11T01:32:06;0.58;;;0.57;;
14663;SDS011;7419;52.184;5.944;2022-08-11T01:33:04;1.15;;;0.46;;
14663;SDS011;7419;52.184;5.944;2022-08-11T01:34:07;1.71;;;0.46;;
14663;SDS011;7419;52.184;5.944;2022-08-11T01:35:16;1.56;;;0.59;;
14663;SDS011;7419;52.184;5.944;2022-08-11T01:36:57;0.74;;;0.50;;
14663;SDS011;7419;52.184;5.944;2022-08-11T01:36:58;1.55;;;0.66;;
14663;SDS011;7419;52.184;5.944;2022-08-11T01:39:00;0.42;;;0.41;;
14663;SDS011;7419;52.184;5.944;2022-08-11T01:40:10;0.46;;;0.46;;
14663;SDS011;7419;52.184;5.944;2022-08-11T01:40:58;2.58;;;0.53;;
14663;SDS011;7419;52.184;5.944;2022-08-11T01:42:00;1.13;;;0.48;;
14663;SDS011;7419;52.184;5.944;2022-08-11T01:43:31;0.80;;;0.44;;
14663;SDS011;7419;52.184;5.944;2022-08-11T01:44:12;0.84;;;0.55;;
14663;SDS011;7419;52.184;5.944;2022-08-11T01:45:02;0.90;;;0.58;;
14663;SDS011;7419;52.184;5.944;2022-08-11T01:45:55;1.69;;;0.56;;
14663;SDS011;7419;52.184;5.944;2022-08-11T01:46:55;0.37;;;0.34;;
14663;SDS011;7419;52.184;5.944;2022-08-11T01:47:57;0.65;;;0.49;;
14663;SDS011;7419;52.184;5.944;2022-08-11T01:48:56;0.41;;;0.40;;
14663;SDS011;7419;52.184;5.944;2022-08-11T01:49:56;0.97;;;0.40;;
14663;SDS011;7419;52.184;5.944;2022-08-11T01:51:00;0.69;;;0.48;;
14663;SDS011;7419;52.184;5.944;2022-08-11T01:52:00;0.54;;;0.53;;
14663;SDS011;7419;52.184;5.944;2022-08-11T01:53:00;1.40;;;0.34;;
14663;SDS011;7419;52.184;5.944;2022-08-11T01:53:58;0.85;;;0.46;;
14663;SDS011;7419;52.184;5.944;2022-08-11T01:54:58;0.45;;;0.40;;
14663;SDS011;7419;52.184;5.944;2022-08-11T01:56:00;0.49;;;0.49;;
14663;SDS011;7419;52.184;5.944;2022-08-11T01:56:58;1.70;;;0.82;;
14663;SDS011;7419;52.184;5.944;2022-08-11T01:58:00;0.39;;;0.36;;
14663;SDS011;7419;52.184;5.944;2022-08-11T01:58:58;0.98;;;0.50;;
14663;SDS011;7419;52.184;5.944;2022-08-11T01:59:58;0.75;;;0.61;;
14663;SDS011;7419;52.184;5.944;2022-08-11T02:00:57;1.03;;;0.66;;
14663;SDS011;7419;52.184;5.944;2022-08-11T02:02:03;0.45;;;0.44;;
14663;SDS011;7419;52.184;5.944;2022-08-11T02:02:57;2.21;;;0.93;;
14663;SDS011;7419;52.184;5.944;2022-08-11T02:03:57;1.32;;;0.74;;
14663;SDS011;7419;52.184;5.944;2022-08-11T02:05:02;1.74;;;0.51;;
14663;SDS011;7419;52.184;5.944;2022-08-11T02:05:57;0.55;;;0.54;;
14663;SDS011;7419;52.184;5.944;2022-08-11T02:06:59;1.30;;;0.53;;
14663;SDS011;7419;52.184;5.944;2022-08-11T02:07:59;0.70;;;0.57;;
14663;SDS011;7419;52.184;5.944;2022-08-11T02:08:58;1.77;;;0.69;;
14663;SDS011;7419;52.184;5.944;2022-08-11T02:09:59;1.11;;;0.41;;
14663;SDS011;7419;52.184;5.944;2022-08-11T02:11:00;1.03;;;0.37;;
14663;SDS011;7419;52.184;5.944;2022-08-11T02:11:57;1.91;;;0.63;;
14663;SDS011;7419;52.184;5.944;2022-08-11T02:12:57;2.04;;;0.58;;
14663;SDS011;7419;52.184;5.944;2022-08-11T02:13:59;1.50;;;0.50;;
14663;SDS011;7419;52.184;5.944;2022-08-11T02:14:58;3.22;;;0.52;;
14663;SDS011;7419;52.184;5.944;2022-08-11T02:16:03;1.28;;;0.51;;
14663;SDS011;7419;52.184;5.944;2022-08-11T02:17:01;1.40;;;0.60;;
14663;SDS011;7419;52.184;5.944;2022-08-11T02:17:59;1.17;;;0.66;;
14663;SDS011;7419;52.184;5.944;2022-08-11T02:19:00;1.10;;;0.59;;
14663;SDS011;7419;52.184;5.944;2022-08-11T02:19:58;2.77;;;0.50;;
14663;SDS011;7419;52.184;5.944;2022-08-11T02:20:57;0.52;;;0.45;;
14663;SDS011;7419;52.184;5.944;2022-08-11T02:21:58;0.97;;;0.55;;
14663;SDS011;7419;52.184;5.944;2022-08-11T02:22:57;0.52;;;0.51;;
14663;SDS011;7419;52.184;5.944;2022-08-11T02:23:57;1.53;;;0.63;;
14663;SDS011;7419;52.184;5.944;2022-08-11T02:24:58;0.75;;;0.62;;
14663;SDS011;7419;52.184;5.944;2022-08-11T02:25:58;0.79;;;0.62;;
14663;SDS011;7419;52.184;5.944;2022-08-11T02:26:59;1.16;;;0.48;;
14663;SDS011;7419;52.184;5.944;2022-08-11T02:28:00;1.78;;;0.45;;
14663;SDS011;7419;52.184;5.944;2022-08-11T02:29:00;0.75;;;0.51;;
14663;SDS011;7419;52.184;5.944;2022-08-11T02:29:57;0.83;;;0.40;;
14663;SDS011;7419;52.184;5.944;2022-08-11T02:30:59;0.81;;;0.58;;
14663;SDS011;7419;52.184;5.944;2022-08-11T02:32:02;2.54;;;0.71;;
14663;SDS011;7419;52.184;5.944;2022-08-11T02:33:00;0.63;;;0.60;;
14663;SDS011;7419;52.184;5.944;2022-08-11T02:33:59;0.90;;;0.55;;
14663;SDS011;7419;52.184;5.944;2022-08-11T02:35:00;0.59;;;0.58;;
14663;SDS011;7419;52.184;5.944;2022-08-11T02:35:59;1.84;;;0.43;;
14663;SDS011;7419;52.184;5.944;2022-08-11T02:36:59;0.82;;;0.67;;
14663;SDS011;7419;52.184;5.944;2022-08-11T02:38:01;2.19;;;0.79;;
14663;SDS011;7419;52.184;5.944;2022-08-11T02:38:59;0.58;;;0.58;;
14663;SDS011;7419;52.184;5.944;2022-08-11T02:40:01;1.79;;;0.70;;
14663;SDS011;7419;52.184;5.944;2022-08-11T02:41:00;0.63;;;0.62;;
14663;SDS011;7419;52.184;5.944;2022-08-11T02:42:03;1.84;;;0.80;;
14663;SDS011;7419;52.184;5.944;2022-08-11T02:43:03;1.23;;;0.43;;
14663;SDS011;7419;52.184;5.944;2022-08-11T02:44:02;1.21;;;0.51;;
14663;SDS011;7419;52.184;5.944;2022-08-11T02:45:03;1.26;;;0.64;;
14663;SDS011;7419;52.184;5.944;2022-08-11T02:46:01;0.53;;;0.42;;
14663;SDS011;7419;52.184;5.944;2022-08-11T02:47:02;0.79;;;0.63;;
14663;SDS011;7419;52.184;5.944;2022-08-11T02:48:00;0.74;;;0.57;;
14663;SDS011;7419;52.184;5.944;2022-08-11T02:49:04;0.79;;;0.48;;
14663;SDS011;7419;52.184;5.944;2022-08-11T02:50:00;0.73;;;0.69;;
14663;SDS011;7419;52.184;5.944;2022-08-11T02:51:02;0.76;;;0.60;;
14663;SDS011;7419;52.184;5.944;2022-08-11T02:52:02;0.54;;;0.52;;
14663;SDS011;7419;52.184;5.944;2022-08-11T02:53:00;1.15;;;0.63;;
14663;SDS011;7419;52.184;5.944;2022-08-11T02:54:01;1.01;;;0.53;;
14663;SDS011;7419;52.184;5.944;2022-08-11T02:55:02;1.43;;;0.44;;
14663;SDS011;7419;52.184;5.944;2022-08-11T02:56:02;0.83;;;0.67;;
14663;SDS011;7419;52.184;5.944;2022-08-11T02:57:00;0.58;;;0.57;;
14663;SDS011;7419;52.184;5.944;2022-08-11T02:58:01;1.03;;;0.71;;
14663;SDS011;7419;52.184;5.944;2022-08-11T02:59:01;1.05;;;0.64;;
14663;SDS011;7419;52.184;5.944;2022-08-11T02:59:59;0.75;;;0.66;;
14663;SDS011;7419;52.184;5.944;2022-08-11T03:01:02;1.43;;;0.66;;
14663;SDS011;7419;52.184;5.944;2022-08-11T03:02:14;2.28;;;0.78;;
14663;SDS011;7419;52.184;5.944;2022-08-11T03:03:02;2.14;;;0.64;;
14663;SDS011;7419;52.184;5.944;2022-08-11T03:04:02;0.69;;;0.64;;
14663;SDS011;7419;52.184;5.944;2022-08-11T03:05:02;1.20;;;0.56;;
14663;SDS011;7419;52.184;5.944;2022-08-11T03:06:03;0.88;;;0.80;;
14663;SDS011;7419;52.184;5.944;2022-08-11T03:07:00;1.22;;;0.67;;
14663;SDS011;7419;52.184;5.944;2022-08-11T03:08:03;1.53;;;0.98;;
14663;SDS011;7419;52.184;5.944;2022-08-11T03:09:01;1.46;;;0.56;;
14663;SDS011;7419;52.184;5.944;2022-08-11T03:10:02;0.57;;;0.56;;
14663;SDS011;7419;52.184;5.944;2022-08-11T03:11:10;1.21;;;0.66;;
14663;SDS011;7419;52.184;5.944;2022-08-11T03:12:10;0.99;;;0.74;;
14663;SDS011;7419;52.184;5.944;2022-08-11T03:13:03;1.74;;;0.76;;
14663;SDS011;7419;52.184;5.944;2022-08-11T03:14:05;0.63;;;0.55;;
14663;SDS011;7419;52.184;5.944;2022-08-11T03:15:01;1.58;;;0.82;;
14663;SDS011;7419;52.184;5.944;2022-08-11T03:17:03;0.54;;;0.53;;
14663;SDS011;7419;52.184;5.944;2022-08-11T03:18:03;1.07;;;0.80;;
14663;SDS011;7419;52.184;5.944;2022-08-11T03:19:02;1.00;;;0.69;;
14663;SDS011;7419;52.184;5.944;2022-08-11T03:20:10;1.55;;;0.78;;
14663;SDS011;7419;52.184;5.944;2022-08-11T03:21:01;1.19;;;0.55;;
14663;SDS011;7419;52.184;5.944;2022-08-11T03:22:02;0.67;;;0.63;;
14663;SDS011;7419;52.184;5.944;2022-08-11T03:23:03;0.68;;;0.67;;
14663;SDS011;7419;52.184;5.944;2022-08-11T03:24:02;0.70;;;0.54;;
14663;SDS011;7419;52.184;5.944;2022-08-11T03:25:01;0.89;;;0.88;;
14663;SDS011;7419;52.184;5.944;2022-08-11T03:26:02;0.69;;;0.38;;
14663;SDS011;7419;52.184;5.944;2022-08-11T03:27:02;0.88;;;0.75;;
14663;SDS011;7419;52.184;5.944;2022-08-11T03:28:03;1.33;;;0.55;;
14663;SDS011;7419;52.184;5.944;2022-08-11T03:29:03;0.76;;;0.54;;
14663;SDS011;7419;52.184;5.944;2022-08-11T03:30:05;0.67;;;0.67;;
14663;SDS011;7419;52.184;5.944;2022-08-11T03:31:06;0.81;;;0.81;;
14663;SDS011;7419;52.184;5.944;2022-08-11T03:32:04;0.60;;;0.60;;
14663;SDS011;7419;52.184;5.944;2022-08-11T03:33:14;0.65;;;0.64;;
14663;SDS011;7419;52.184;5.944;2022-08-11T03:34:03;1.39;;;0.72;;
14663;SDS011;7419;52.184;5.944;2022-08-11T03:35:02;1.94;;;0.66;;
14663;SDS011;7419;52.184;5.944;2022-08-11T03:36:05;0.39;;;0.38;;
14663;SDS011;7419;52.184;5.944;2022-08-11T03:37:09;1.47;;;0.67;;
14663;SDS011;7419;52.184;5.944;2022-08-11T03:38:02;1.67;;;0.57;;
14663;SDS011;7419;52.184;5.944;2022-08-11T03:39:05;0.65;;;0.65;;
14663;SDS011;7419;52.184;5.944;2022-08-11T03:40:05;0.69;;;0.61;;
14663;SDS011;7419;52.184;5.944;2022-08-11T03:41:06;0.68;;;0.53;;
14663;SDS011;7419;52.184;5.944;2022-08-11T03:42:05;0.77;;;0.70;;
14663;SDS011;7419;52.184;5.944;2022-08-11T03:43:04;0.72;;;0.71;;
14663;SDS011;7419;52.184;5.944;2022-08-11T03:44:03;1.18;;;0.74;;
14663;SDS011;7419;52.184;5.944;2022-08-11T03:45:04;0.78;;;0.70;;
14663;SDS011;7419;52.184;5.944;2022-08-11T03:46:03;0.85;;;0.74;;
14663;SDS011;7419;52.184;5.944;2022-08-11T03:47:08;0.63;;;0.60;;
14663;SDS011;7419;52.184;5.944;2022-08-11T03:48:06;0.99;;;0.64;;
14663;SDS011;7419;52.184;5.944;2022-08-11T03:49:04;1.15;;;0.63;;
14663;SDS011;7419;52.184;5.944;2022-08-11T03:50:05;0.80;;;0.80;;
14663;SDS011;7419;52.184;5.944;2022-08-11T03:51:05;0.52;;;0.51;;
14663;SDS011;7419;52.184;5.944;2022-08-11T03:52:06;1.08;;;0.75;;
14663;SDS011;7419;52.184;5.944;2022-08-11T03:53:07;1.57;;;0.67;;
14663;SDS011;7419;52.184;5.944;2022-08-11T03:54:05;0.80;;;0.63;;
14663;SDS011;7419;52.184;5.944;2022-08-11T03:55:07;2.31;;;0.82;;
14663;SDS011;7419;52.184;5.944;2022-08-11T03:56:12;1.13;;;0.67;;
14663;SDS011;7419;52.184;5.944;2022-08-11T03:57:15;1.67;;;0.74;;
14663;SDS011;7419;52.184;5.944;2022-08-11T03:58:14;0.99;;;0.78;;
14663;SDS011;7419;52.184;5.944;2022-08-11T03:59:14;1.34;;;0.83;;
14663;SDS011;7419;52.184;5.944;2022-08-11T04:02:08;1.42;;;0.93;;
14663;SDS011;7419;52.184;5.944;2022-08-11T04:04:22;0.68;;;0.68;;
14663;SDS011;7419;52.184;5.944;2022-08-11T04:05:16;0.91;;;0.83;;
14663;SDS011;7419;52.184;5.944;2022-08-11T04:07:22;0.96;;;0.83;;
14663;SDS011;7419;52.184;5.944;2022-08-11T04:08:23;0.87;;;0.83;;
14663;SDS011;7419;52.184;5.944;2022-08-11T04:09:11;1.25;;;1.03;;
14663;SDS011;7419;52.184;5.944;2022-08-11T04:11:10;0.62;;;0.62;;
14663;SDS011;7419;52.184;5.944;2022-08-11T04:12:11;0.86;;;0.85;;
14663;SDS011;7419;52.184;5.944;2022-08-11T04:14:10;1.46;;;0.96;;
14663;SDS011;7419;52.184;5.944;2022-08-11T04:16:08;1.06;;;0.88;;
14663;SDS011;7419;52.184;5.944;2022-08-11T04:16:09;0.67;;;0.66;;
14663;SDS011;7419;52.184;5.944;2022-08-11T04:17:13;0.88;;;0.69;;
14663;SDS011;7419;52.184;5.944;2022-08-11T04:18:26;0.94;;;0.70;;
14663;SDS011;7419;52.184;5.944;2022-08-11T04:20:13;0.92;;;0.85;;
14663;SDS011;7419;52.184;5.944;2022-08-11T04:21:07;0.63;;;0.57;;
14663;SDS011;7419;52.184;5.944;2022-08-11T04:22:16;1.51;;;1.06;;
14663;SDS011;7419;52.184;5.944;2022-08-11T04:23:07;2.58;;;0.57;;
14663;SDS011;7419;52.184;5.944;2022-08-11T04:24:11;0.82;;;0.68;;
14663;SDS011;7419;52.184;5.944;2022-08-11T04:25:10;0.91;;;0.83;;
14663;SDS011;7419;52.184;5.944;2022-08-11T04:26:11;1.37;;;0.82;;
14663;SDS011;7419;52.184;5.944;2022-08-11T04:27:11;1.54;;;0.75;;
14663;SDS011;7419;52.184;5.944;2022-08-11T04:28:09;2.36;;;1.08;;
14663;SDS011;7419;52.184;5.944;2022-08-11T04:29:09;0.90;;;0.70;;
14663;SDS011;7419;52.184;5.944;2022-08-11T04:30:06;0.62;;;0.61;;
14663;SDS011;7419;52.184;5.944;2022-08-11T04:31:07;0.63;;;0.58;;
14663;SDS011;7419;52.184;5.944;2022-08-11T04:32:09;0.96;;;0.79;;
14663;SDS011;7419;52.184;5.944;2022-08-11T04:33:14;0.89;;;0.85;;
14663;SDS011;7419;52.184;5.944;2022-08-11T04:34:11;2.77;;;0.70;;
14663;SDS011;7419;52.184;5.944;2022-08-11T04:35:09;0.67;;;0.66;;
14663;SDS011;7419;52.184;5.944;2022-08-11T04:36:09;1.05;;;0.69;;
14663;SDS011;7419;52.184;5.944;2022-08-11T04:37:09;2.03;;;0.74;;
14663;SDS011;7419;52.184;5.944;2022-08-11T04:38:11;1.69;;;0.81;;
14663;SDS011;7419;52.184;5.944;2022-08-11T04:39:08;0.94;;;0.71;;
14663;SDS011;7419;52.184;5.944;2022-08-11T04:40:12;0.76;;;0.71;;
14663;SDS011;7419;52.184;5.944;2022-08-11T04:41:17;1.21;;;0.76;;
14663;SDS011;7419;52.184;5.944;2022-08-11T04:42:11;0.84;;;0.74;;
14663;SDS011;7419;52.184;5.944;2022-08-11T04:44:15;0.76;;;0.71;;
14663;SDS011;7419;52.184;5.944;2022-08-11T04:45:19;1.52;;;0.81;;
14663;SDS011;7419;52.184;5.944;2022-08-11T04:46:12;1.33;;;0.79;;
14663;SDS011;7419;52.184;5.944;2022-08-11T04:47:09;0.84;;;0.84;;
14663;SDS011;7419;52.184;5.944;2022-08-11T04:48:13;1.09;;;0.93;;
14663;SDS011;7419;52.184;5.944;2022-08-11T04:50:09;1.01;;;0.88;;
14663;SDS011;7419;52.184;5.944;2022-08-11T04:51:14;1.93;;;0.72;;
14663;SDS011;7419;52.184;5.944;2022-08-11T04:52:12;0.74;;;0.69;;
14663;SDS011;7419;52.184;5.944;2022-08-11T04:53:10;0.87;;;0.87;;
14663;SDS011;7419;52.184;5.944;2022-08-11T04:54:10;1.02;;;0.86;;
14663;SDS011;7419;52.184;5.944;2022-08-11T04:55:14;1.65;;;0.97;;
14663;SDS011;7419;52.184;5.944;2022-08-11T04:56:08;1.30;;;0.81;;
14663;SDS011;7419;52.184;5.944;2022-08-11T04:57:08;0.86;;;0.85;;
14663;SDS011;7419;52.184;5.944;2022-08-11T04:58:10;1.69;;;1.05;;
14663;SDS011;7419;52.184;5.944;2022-08-11T04:59:10;0.91;;;0.87;;
14663;SDS011;7419;52.184;5.944;2022-08-11T05:00:07;1.17;;;0.76;;
14663;SDS011;7419;52.184;5.944;2022-08-11T05:01:15;0.88;;;0.79;;
14663;SDS011;7419;52.184;5.944;2022-08-11T05:03:29;3.63;;;1.07;;
14663;SDS011;7419;52.184;5.944;2022-08-11T05:04:13;1.09;;;0.93;;
14663;SDS011;7419;52.184;5.944;2022-08-11T05:05:14;0.83;;;0.82;;
14663;SDS011;7419;52.184;5.944;2022-08-11T05:06:11;0.99;;;0.88;;
14663;SDS011;7419;52.184;5.944;2022-08-11T05:07:16;1.36;;;0.95;;
14663;SDS011;7419;52.184;5.944;2022-08-11T05:09:18;0.72;;;0.70;;
14663;SDS011;7419;52.184;5.944;2022-08-11T05:10:12;1.28;;;1.04;;
14663;SDS011;7419;52.184;5.944;2022-08-11T05:12:14;0.92;;;0.74;;
14663;SDS011;7419;52.184;5.944;2022-08-11T05:13:08;1.03;;;0.93;;
14663;SDS011;7419;52.184;5.944;2022-08-11T05:14:26;1.52;;;0.98;;
14663;SDS011;7419;52.184;5.944;2022-08-11T05:15:10;1.77;;;1.02;;
14663;SDS011;7419;52.184;5.944;2022-08-11T05:16:09;1.27;;;1.09;;
14663;SDS011;7419;52.184;5.944;2022-08-11T05:17:09;1.24;;;0.95;;
14663;SDS011;7419;52.184;5.944;2022-08-11T05:18:12;0.90;;;0.89;;
14663;SDS011;7419;52.184;5.944;2022-08-11T05:19:08;1.08;;;0.88;;
14663;SDS011;7419;52.184;5.944;2022-08-11T05:20:09;0.99;;;0.77;;
14663;SDS011;7419;52.184;5.944;2022-08-11T05:21:09;1.08;;;0.99;;
14663;SDS011;7419;52.184;5.944;2022-08-11T05:22:09;1.37;;;0.93;;
14663;SDS011;7419;52.184;5.944;2022-08-11T05:23:09;0.80;;;0.80;;
14663;SDS011;7419;52.184;5.944;2022-08-11T05:24:10;0.77;;;0.72;;
14663;SDS011;7419;52.184;5.944;2022-08-11T05:25:09;0.89;;;0.89;;
14663;SDS011;7419;52.184;5.944;2022-08-11T05:26:09;1.40;;;1.14;;
14663;SDS011;7419;52.184;5.944;2022-08-11T05:27:09;1.35;;;1.01;;
14663;SDS011;7419;52.184;5.944;2022-08-11T05:28:10;2.15;;;0.88;;
14663;SDS011;7419;52.184;5.944;2022-08-11T05:29:25;1.57;;;0.83;;
14663;SDS011;7419;52.184;5.944;2022-08-11T05:30:09;0.69;;;0.68;;
14663;SDS011;7419;52.184;5.944;2022-08-11T05:31:10;1.20;;;0.95;;
14663;SDS011;7419;52.184;5.944;2022-08-11T05:32:10;2.05;;;1.33;;
14663;SDS011;7419;52.184;5.944;2022-08-11T05:33:11;2.42;;;0.85;;
14663;SDS011;7419;52.184;5.944;2022-08-11T05:34:10;1.04;;;0.99;;
14663;SDS011;7419;52.184;5.944;2022-08-11T05:35:09;1.09;;;0.91;;
14663;SDS011;7419;52.184;5.944;2022-08-11T05:36:11;1.78;;;1.28;;
14663;SDS011;7419;52.184;5.944;2022-08-11T05:37:10;1.14;;;0.79;;
14663;SDS011;7419;52.184;5.944;2022-08-11T05:38:10;1.11;;;0.95;;
14663;SDS011;7419;52.184;5.944;2022-08-11T05:39:12;1.44;;;1.17;;
14663;SDS011;7419;52.184;5.944;2022-08-11T05:40:11;1.41;;;0.97;;
14663;SDS011;7419;52.184;5.944;2022-08-11T05:41:10;2.84;;;1.09;;
14663;SDS011;7419;52.184;5.944;2022-08-11T05:42:10;1.60;;;1.05;;
14663;SDS011;7419;52.184;5.944;2022-08-11T05:43:11;1.36;;;0.96;;
14663;SDS011;7419;52.184;5.944;2022-08-11T05:44:10;1.70;;;1.02;;
14663;SDS011;7419;52.184;5.944;2022-08-11T05:45:10;2.41;;;1.06;;
14663;SDS011;7419;52.184;5.944;2022-08-11T05:46:10;1.12;;;0.96;;
14663;SDS011;7419;52.184;5.944;2022-08-11T05:47:10;1.36;;;1.06;;
14663;SDS011;7419;52.184;5.944;2022-08-11T05:48:10;2.00;;;1.42;;
14663;SDS011;7419;52.184;5.944;2022-08-11T05:49:10;1.43;;;1.18;;
14663;SDS011;7419;52.184;5.944;2022-08-11T05:50:10;1.43;;;1.34;;
14663;SDS011;7419;52.184;5.944;2022-08-11T05:51:10;2.87;;;1.58;;
14663;SDS011;7419;52.184;5.944;2022-08-11T05:52:13;1.80;;;1.28;;
14663;SDS011;7419;52.184;5.944;2022-08-11T05:53:12;2.34;;;1.78;;
14663;SDS011;7419;52.184;5.944;2022-08-11T05:54:10;2.57;;;1.67;;
14663;SDS011;7419;52.184;5.944;2022-08-11T05:55:10;1.52;;;1.43;;
14663;SDS011;7419;52.184;5.944;2022-08-11T05:56:10;2.04;;;1.80;;
14663;SDS011;7419;52.184;5.944;2022-08-11T05:57:17;1.76;;;1.60;;
14663;SDS011;7419;52.184;5.944;2022-08-11T05:58:10;1.98;;;1.76;;
14663;SDS011;7419;52.184;5.944;2022-08-11T05:59:12;3.57;;;1.62;;
14663;SDS011;7419;52.184;5.944;2022-08-11T06:00:11;1.62;;;1.51;;
14663;SDS011;7419;52.184;5.944;2022-08-11T06:01:11;2.18;;;1.46;;
14663;SDS011;7419;52.184;5.944;2022-08-11T06:02:10;3.57;;;1.93;;
14663;SDS011;7419;52.184;5.944;2022-08-11T06:03:11;2.63;;;1.98;;
14663;SDS011;7419;52.184;5.944;2022-08-11T06:04:14;2.80;;;1.81;;
14663;SDS011;7419;52.184;5.944;2022-08-11T06:05:11;3.17;;;1.89;;
14663;SDS011;7419;52.184;5.944;2022-08-11T06:06:11;2.38;;;2.17;;
14663;SDS011;7419;52.184;5.944;2022-08-11T06:07:11;3.63;;;1.96;;
14663;SDS011;7419;52.184;5.944;2022-08-11T06:08:11;1.83;;;1.68;;
14663;SDS011;7419;52.184;5.944;2022-08-11T06:09:11;3.57;;;1.55;;
14663;SDS011;7419;52.184;5.944;2022-08-11T06:10:11;3.20;;;1.92;;
14663;SDS011;7419;52.184;5.944;2022-08-11T06:11:11;2.52;;;1.60;;
14663;SDS011;7419;52.184;5.944;2022-08-11T06:12:15;2.48;;;1.83;;
14663;SDS011;7419;52.184;5.944;2022-08-11T06:13:13;2.97;;;1.67;;
14663;SDS011;7419;52.184;5.944;2022-08-11T06:14:11;3.66;;;2.02;;
14663;SDS011;7419;52.184;5.944;2022-08-11T06:15:11;2.80;;;1.68;;
14663;SDS011;7419;52.184;5.944;2022-08-11T06:16:11;1.64;;;1.37;;
14663;SDS011;7419;52.184;5.944;2022-08-11T06:17:11;2.12;;;1.59;;
14663;SDS011;7419;52.184;5.944;2022-08-11T06:18:12;2.10;;;1.57;;
14663;SDS011;7419;52.184;5.944;2022-08-11T06:19:11;2.74;;;1.42;;
14663;SDS011;7419;52.184;5.944;2022-08-11T06:20:12;3.00;;;1.39;;
14663;SDS011;7419;52.184;5.944;2022-08-11T06:21:12;2.44;;;1.91;;
14663;SDS011;7419;52.184;5.944;2022-08-11T06:22:12;3.39;;;1.84;;
14663;SDS011;7419;52.184;5.944;2022-08-11T06:23:12;2.27;;;1.73;;
14663;SDS011;7419;52.184;5.944;2022-08-11T06:24:12;1.83;;;1.42;;
14663;SDS011;7419;52.184;5.944;2022-08-11T06:25:12;1.73;;;1.27;;
14663;SDS011;7419;52.184;5.944;2022-08-11T06:26:12;1.82;;;1.38;;
14663;SDS011;7419;52.184;5.944;2022-08-11T06:27:12;2.89;;;1.66;;
14663;SDS011;7419;52.184;5.944;2022-08-11T06:28:12;2.16;;;1.43;;